sensor_id;sensor_type;location;lat;lon;timestamp;P1;durP1;ratioP1;P2;durP2;ratioP2
54947;SDS011;41113;41.882;12.530;2023-09-07T00:00:58;16.23;;;9.25;;
54947;SDS011;41113;41.882;12.530;2023-09-07T00:03:25;14.98;;;8.70;;
54947;SDS011;41113;41.882;12.530;2023-09-07T00:05:51;17.17;;;9.93;;
54947;SDS011;41113;41.882;12.530;2023-09-07T00:08:16;17.38;;;9.18;;
54947;SDS011;41113;41.882;12.530;2023-09-07T00:10:41;16.42;;;9.10;;
54947;SDS011;41113;41.882;12.530;2023-09-07T00:13:07;15.32;;;9.15;;
54947;SDS011;41113;41.882;12.530;2023-09-07T00:15:36;13.02;;;8.60;;
54947;SDS011;41113;41.882;12.530;2023-09-07T00:18:02;16.85;;;9.02;;
54947;SDS011;41113;41.882;12.530;2023-09-07T00:20:28;14.70;;;9.05;;
54947;SDS011;41113;41.882;12.530;2023-09-07T00:22:55;14.45;;;9.43;;
54947;SDS011;41113;41.882;12.530;2023-09-07T00:25:20;15.70;;;10.25;;
54947;SDS011;41113;41.882;12.530;2023-09-07T00:27:45;18.83;;;10.20;;
54947;SDS011;41113;41.882;12.530;2023-09-07T00:30:11;16.17;;;10.02;;
54947;SDS011;41113;41.882;12.530;2023-09-07T00:32:37;16.05;;;10.02;;
54947;SDS011;41113;41.882;12.530;2023-09-07T00:35:03;15.75;;;9.23;;
54947;SDS011;41113;41.882;12.530;2023-09-07T00:37:30;14.75;;;9.43;;
54947;SDS011;41113;41.882;12.530;2023-09-07T00:39:55;16.25;;;9.98;;
54947;SDS011;41113;41.882;12.530;2023-09-07T00:42:21;16.48;;;9.90;;
54947;SDS011;41113;41.882;12.530;2023-09-07T00:44:46;16.50;;;9.18;;
54947;SDS011;41113;41.882;12.530;2023-09-07T00:47:13;16.73;;;9.55;;
54947;SDS011;41113;41.882;12.530;2023-09-07T00:49:39;14.45;;;9.23;;
54947;SDS011;41113;41.882;12.530;2023-09-07T00:52:05;13.15;;;8.82;;
54947;SDS011;41113;41.882;12.530;2023-09-07T00:54:32;13.93;;;8.80;;
54947;SDS011;41113;41.882;12.530;2023-09-07T00:56:59;15.60;;;8.75;;
54947;SDS011;41113;41.882;12.530;2023-09-07T00:59:24;15.80;;;9.05;;
54947;SDS011;41113;41.882;12.530;2023-09-07T01:01:50;15.30;;;9.02;;
54947;SDS011;41113;41.882;12.530;2023-09-07T01:04:15;14.88;;;8.57;;
54947;SDS011;41113;41.882;12.530;2023-09-07T01:06:51;15.05;;;8.70;;
54947;SDS011;41113;41.882;12.530;2023-09-07T01:09:21;14.15;;;7.75;;
54947;SDS011;41113;41.882;12.530;2023-09-07T01:11:51;15.82;;;8.57;;
54947;SDS011;41113;41.882;12.530;2023-09-07T01:14:17;16.58;;;9.00;;
54947;SDS011;41113;41.882;12.530;2023-09-07T01:16:43;13.77;;;8.32;;
54947;SDS011;41113;41.882;12.530;2023-09-07T01:19:09;15.00;;;8.27;;
54947;SDS011;41113;41.882;12.530;2023-09-07T01:21:36;13.98;;;8.20;;
54947;SDS011;41113;41.882;12.530;2023-09-07T01:24:04;12.63;;;8.02;;
54947;SDS011;41113;41.882;12.530;2023-09-07T01:26:31;11.85;;;7.75;;
54947;SDS011;41113;41.882;12.530;2023-09-07T01:28:56;12.82;;;8.18;;
54947;SDS011;41113;41.882;12.530;2023-09-07T01:31:22;15.05;;;7.60;;
54947;SDS011;41113;41.882;12.530;2023-09-07T01:33:47;13.93;;;7.93;;
54947;SDS011;41113;41.882;12.530;2023-09-07T01:36:13;13.10;;;7.90;;
54947;SDS011;41113;41.882;12.530;2023-09-07T01:38:38;14.27;;;8.35;;
54947;SDS011;41113;41.882;12.530;2023-09-07T01:41:03;12.95;;;8.30;;
54947;SDS011;41113;41.882;12.530;2023-09-07T01:43:29;13.43;;;8.45;;
54947;SDS011;41113;41.882;12.530;2023-09-07T01:45:54;14.20;;;8.82;;
54947;SDS011;41113;41.882;12.530;2023-09-07T01:48:19;13.82;;;8.23;;
54947;SDS011;41113;41.882;12.530;2023-09-07T01:50:45;12.75;;;8.65;;
54947;SDS011;41113;41.882;12.530;2023-09-07T01:53:10;14.15;;;8.88;;
54947;SDS011;41113;41.882;12.530;2023-09-07T01:55:37;13.23;;;7.70;;
54947;SDS011;41113;41.882;12.530;2023-09-07T01:58:02;11.38;;;7.50;;
54947;SDS011;41113;41.882;12.530;2023-09-07T02:00:28;14.88;;;7.72;;
54947;SDS011;41113;41.882;12.530;2023-09-07T02:02:53;13.98;;;8.25;;
54947;SDS011;41113;41.882;12.530;2023-09-07T02:05:18;12.70;;;7.68;;
54947;SDS011;41113;41.882;12.530;2023-09-07T02:07:44;11.88;;;7.60;;
54947;SDS011;41113;41.882;12.530;2023-09-07T02:10:10;12.55;;;7.63;;
54947;SDS011;41113;41.882;12.530;2023-09-07T02:12:35;12.35;;;7.97;;
54947;SDS011;41113;41.882;12.530;2023-09-07T02:15:02;12.98;;;7.63;;
54947;SDS011;41113;41.882;12.530;2023-09-07T02:17:29;14.10;;;7.20;;
54947;SDS011;41113;41.882;12.530;2023-09-07T02:19:55;12.93;;;7.60;;
54947;SDS011;41113;41.882;12.530;2023-09-07T02:22:20;12.52;;;7.18;;
54947;SDS011;41113;41.882;12.530;2023-09-07T02:24:46;10.43;;;6.35;;
54947;SDS011;41113;41.882;12.530;2023-09-07T02:27:11;13.32;;;6.93;;
54947;SDS011;41113;41.882;12.530;2023-09-07T02:29:36;12.18;;;7.35;;
54947;SDS011;41113;41.882;12.530;2023-09-07T02:32:02;12.02;;;7.00;;
54947;SDS011;41113;41.882;12.530;2023-09-07T02:34:28;12.40;;;7.15;;
54947;SDS011;41113;41.882;12.530;2023-09-07T02:36:53;13.82;;;7.82;;
54947;SDS011;41113;41.882;12.530;2023-09-07T02:39:19;12.38;;;6.93;;
54947;SDS011;41113;41.882;12.530;2023-09-07T02:41:45;14.20;;;7.18;;
54947;SDS011;41113;41.882;12.530;2023-09-07T02:44:11;12.95;;;6.97;;
54947;SDS011;41113;41.882;12.530;2023-09-07T02:46:36;13.65;;;7.40;;
54947;SDS011;41113;41.882;12.530;2023-09-07T02:49:01;13.45;;;6.75;;
54947;SDS011;41113;41.882;12.530;2023-09-07T02:51:27;11.43;;;6.68;;
54947;SDS011;41113;41.882;12.530;2023-09-07T02:53:53;14.85;;;6.80;;
54947;SDS011;41113;41.882;12.530;2023-09-07T02:56:18;12.77;;;7.18;;
54947;SDS011;41113;41.882;12.530;2023-09-07T02:58:44;13.40;;;6.63;;
54947;SDS011;41113;41.882;12.530;2023-09-07T03:01:10;12.30;;;6.43;;
54947;SDS011;41113;41.882;12.530;2023-09-07T03:03:36;12.10;;;6.43;;
54947;SDS011;41113;41.882;12.530;2023-09-07T03:06:09;13.45;;;7.30;;
54947;SDS011;41113;41.882;12.530;2023-09-07T03:08:35;11.52;;;6.68;;
54947;SDS011;41113;41.882;12.530;2023-09-07T03:11:04;12.30;;;6.68;;
54947;SDS011;41113;41.882;12.530;2023-09-07T03:13:30;13.25;;;6.45;;
54947;SDS011;41113;41.882;12.530;2023-09-07T03:15:56;11.75;;;6.35;;
54947;SDS011;41113;41.882;12.530;2023-09-07T03:18:22;11.68;;;6.53;;
54947;SDS011;41113;41.882;12.530;2023-09-07T03:20:47;11.68;;;6.93;;
54947;SDS011;41113;41.882;12.530;2023-09-07T03:23:14;11.27;;;6.38;;
54947;SDS011;41113;41.882;12.530;2023-09-07T03:25:39;11.50;;;6.80;;
54947;SDS011;41113;41.882;12.530;2023-09-07T03:28:05;10.82;;;6.65;;
54947;SDS011;41113;41.882;12.530;2023-09-07T03:30:31;11.43;;;6.55;;
54947;SDS011;41113;41.882;12.530;2023-09-07T03:32:57;12.95;;;6.40;;
54947;SDS011;41113;41.882;12.530;2023-09-07T03:35:22;12.98;;;6.93;;
54947;SDS011;41113;41.882;12.530;2023-09-07T03:37:48;12.82;;;6.60;;
54947;SDS011;41113;41.882;12.530;2023-09-07T03:40:13;12.98;;;6.65;;
54947;SDS011;41113;41.882;12.530;2023-09-07T03:42:38;10.90;;;6.13;;
54947;SDS011;41113;41.882;12.530;2023-09-07T03:45:04;11.00;;;6.28;;
54947;SDS011;41113;41.882;12.530;2023-09-07T03:47:30;12.98;;;6.78;;
54947;SDS011;41113;41.882;12.530;2023-09-07T03:49:55;11.48;;;6.20;;
54947;SDS011;41113;41.882;12.530;2023-09-07T03:52:22;11.05;;;6.45;;
54947;SDS011;41113;41.882;12.530;2023-09-07T03:54:49;14.20;;;6.50;;
54947;SDS011;41113;41.882;12.530;2023-09-07T03:57:16;10.25;;;6.15;;
54947;SDS011;41113;41.882;12.530;2023-09-07T03:59:41;10.60;;;5.78;;
54947;SDS011;41113;41.882;12.530;2023-09-07T04:02:07;10.13;;;5.80;;
54947;SDS011;41113;41.882;12.530;2023-09-07T04:04:32;10.40;;;5.80;;
54947;SDS011;41113;41.882;12.530;2023-09-07T04:06:58;12.70;;;6.38;;
54947;SDS011;41113;41.882;12.530;2023-09-07T04:09:23;11.13;;;6.05;;
54947;SDS011;41113;41.882;12.530;2023-09-07T04:11:49;11.90;;;6.47;;
54947;SDS011;41113;41.882;12.530;2023-09-07T04:14:14;13.52;;;6.65;;
54947;SDS011;41113;41.882;12.530;2023-09-07T04:16:39;11.63;;;6.45;;
54947;SDS011;41113;41.882;12.530;2023-09-07T04:19:05;12.18;;;6.82;;
54947;SDS011;41113;41.882;12.530;2023-09-07T04:21:30;11.77;;;6.18;;
54947;SDS011;41113;41.882;12.530;2023-09-07T04:23:55;12.43;;;6.80;;
54947;SDS011;41113;41.882;12.530;2023-09-07T04:26:20;10.05;;;5.97;;
54947;SDS011;41113;41.882;12.530;2023-09-07T04:28:46;11.05;;;5.65;;
54947;SDS011;41113;41.882;12.530;2023-09-07T04:31:11;11.75;;;6.15;;
54947;SDS011;41113;41.882;12.530;2023-09-07T04:33:36;13.68;;;6.40;;
54947;SDS011;41113;41.882;12.530;2023-09-07T04:36:12;12.18;;;6.00;;
54947;SDS011;41113;41.882;12.530;2023-09-07T04:38:39;11.85;;;6.05;;
54947;SDS011;41113;41.882;12.530;2023-09-07T04:41:08;11.50;;;6.38;;
54947;SDS011;41113;41.882;12.530;2023-09-07T04:43:38;12.25;;;5.85;;
54947;SDS011;41113;41.882;12.530;2023-09-07T04:46:05;13.35;;;6.28;;
54947;SDS011;41113;41.882;12.530;2023-09-07T04:48:31;11.65;;;6.57;;
54947;SDS011;41113;41.882;12.530;2023-09-07T04:51:00;15.00;;;6.47;;
54947;SDS011;41113;41.882;12.530;2023-09-07T04:53:30;11.23;;;6.30;;
54947;SDS011;41113;41.882;12.530;2023-09-07T04:55:57;12.25;;;6.65;;
54947;SDS011;41113;41.882;12.530;2023-09-07T04:58:23;12.30;;;6.38;;
54947;SDS011;41113;41.882;12.530;2023-09-07T05:00:48;13.43;;;6.93;;
54947;SDS011;41113;41.882;12.530;2023-09-07T05:03:14;12.50;;;6.50;;
54947;SDS011;41113;41.882;12.530;2023-09-07T05:05:40;12.13;;;5.72;;
54947;SDS011;41113;41.882;12.530;2023-09-07T05:08:06;11.32;;;5.72;;
54947;SDS011;41113;41.882;12.530;2023-09-07T05:10:34;12.85;;;5.95;;
54947;SDS011;41113;41.882;12.530;2023-09-07T05:13:00;13.50;;;5.53;;
54947;SDS011;41113;41.882;12.530;2023-09-07T05:15:26;11.43;;;6.10;;
54947;SDS011;41113;41.882;12.530;2023-09-07T05:17:51;11.77;;;5.45;;
54947;SDS011;41113;41.882;12.530;2023-09-07T05:20:17;10.10;;;5.47;;
54947;SDS011;41113;41.882;12.530;2023-09-07T05:22:43;11.32;;;5.75;;
54947;SDS011;41113;41.882;12.530;2023-09-07T05:25:09;12.90;;;5.72;;
54947;SDS011;41113;41.882;12.530;2023-09-07T05:27:35;10.43;;;5.53;;
54947;SDS011;41113;41.882;12.530;2023-09-07T05:30:00;11.90;;;5.80;;
54947;SDS011;41113;41.882;12.530;2023-09-07T05:32:26;13.82;;;6.32;;
54947;SDS011;41113;41.882;12.530;2023-09-07T05:34:52;13.57;;;5.93;;
54947;SDS011;41113;41.882;12.530;2023-09-07T05:37:17;12.32;;;5.32;;
54947;SDS011;41113;41.882;12.530;2023-09-07T05:39:42;11.73;;;5.97;;
54947;SDS011;41113;41.882;12.530;2023-09-07T05:42:08;11.05;;;5.45;;
54947;SDS011;41113;41.882;12.530;2023-09-07T05:44:33;12.68;;;6.00;;
54947;SDS011;41113;41.882;12.530;2023-09-07T05:46:59;11.80;;;6.05;;
54947;SDS011;41113;41.882;12.530;2023-09-07T05:49:24;10.68;;;5.05;;
54947;SDS011;41113;41.882;12.530;2023-09-07T05:51:50;11.55;;;5.70;;
54947;SDS011;41113;41.882;12.530;2023-09-07T05:54:16;12.55;;;5.47;;
54947;SDS011;41113;41.882;12.530;2023-09-07T05:56:42;15.05;;;5.50;;
54947;SDS011;41113;41.882;12.530;2023-09-07T05:59:07;11.70;;;5.32;;
54947;SDS011;41113;41.882;12.530;2023-09-07T06:01:32;9.98;;;5.20;;
54947;SDS011;41113;41.882;12.530;2023-09-07T06:03:58;14.38;;;5.78;;
54947;SDS011;41113;41.882;12.530;2023-09-07T06:06:24;10.88;;;5.20;;
54947;SDS011;41113;41.882;12.530;2023-09-07T06:08:49;16.27;;;6.13;;
54947;SDS011;41113;41.882;12.530;2023-09-07T06:11:15;10.82;;;5.13;;
54947;SDS011;41113;41.882;12.530;2023-09-07T06:13:40;11.63;;;5.32;;
54947;SDS011;41113;41.882;12.530;2023-09-07T06:16:06;12.38;;;5.65;;
54947;SDS011;41113;41.882;12.530;2023-09-07T06:18:32;10.95;;;5.28;;
54947;SDS011;41113;41.882;12.530;2023-09-07T06:20:57;12.95;;;5.60;;
54947;SDS011;41113;41.882;12.530;2023-09-07T06:23:22;12.85;;;6.20;;
54947;SDS011;41113;41.882;12.530;2023-09-07T06:25:48;10.20;;;5.22;;
54947;SDS011;41113;41.882;12.530;2023-09-07T06:28:13;10.50;;;5.30;;
54947;SDS011;41113;41.882;12.530;2023-09-07T06:30:38;11.75;;;5.78;;
54947;SDS011;41113;41.882;12.530;2023-09-07T06:33:04;12.02;;;5.28;;
54947;SDS011;41113;41.882;12.530;2023-09-07T06:35:29;11.95;;;5.55;;
54947;SDS011;41113;41.882;12.530;2023-09-07T06:37:55;15.43;;;5.85;;
54947;SDS011;41113;41.882;12.530;2023-09-07T06:40:23;12.00;;;5.15;;
54947;SDS011;41113;41.882;12.530;2023-09-07T06:42:50;11.52;;;5.43;;
54947;SDS011;41113;41.882;12.530;2023-09-07T06:45:16;13.18;;;5.78;;
54947;SDS011;41113;41.882;12.530;2023-09-07T06:47:41;12.68;;;5.45;;
54947;SDS011;41113;41.882;12.530;2023-09-07T06:50:07;10.30;;;5.60;;
54947;SDS011;41113;41.882;12.530;2023-09-07T06:52:32;10.43;;;4.97;;
54947;SDS011;41113;41.882;12.530;2023-09-07T06:54:57;10.88;;;5.95;;
54947;SDS011;41113;41.882;12.530;2023-09-07T06:57:23;12.75;;;5.85;;
54947;SDS011;41113;41.882;12.530;2023-09-07T06:59:48;11.63;;;5.18;;
54947;SDS011;41113;41.882;12.530;2023-09-07T07:02:14;9.60;;;4.97;;
54947;SDS011;41113;41.882;12.530;2023-09-07T07:04:39;11.20;;;5.50;;
54947;SDS011;41113;41.882;12.530;2023-09-07T07:07:04;11.82;;;5.53;;
54947;SDS011;41113;41.882;12.530;2023-09-07T07:09:31;10.73;;;5.05;;
54947;SDS011;41113;41.882;12.530;2023-09-07T07:11:58;13.00;;;5.13;;
54947;SDS011;41113;41.882;12.530;2023-09-07T07:14:26;12.13;;;5.55;;
54947;SDS011;41113;41.882;12.530;2023-09-07T07:16:51;10.30;;;5.68;;
54947;SDS011;41113;41.882;12.530;2023-09-07T07:19:16;16.70;;;5.60;;
54947;SDS011;41113;41.882;12.530;2023-09-07T07:21:42;11.00;;;5.65;;
54947;SDS011;41113;41.882;12.530;2023-09-07T07:24:07;11.63;;;5.70;;
54947;SDS011;41113;41.882;12.530;2023-09-07T07:26:33;11.63;;;5.28;;
54947;SDS011;41113;41.882;12.530;2023-09-07T07:28:59;11.50;;;5.47;;
54947;SDS011;41113;41.882;12.530;2023-09-07T07:31:24;13.77;;;5.65;;
54947;SDS011;41113;41.882;12.530;2023-09-07T07:33:49;14.02;;;6.00;;
54947;SDS011;41113;41.882;12.530;2023-09-07T07:36:15;12.20;;;5.70;;
54947;SDS011;41113;41.882;12.530;2023-09-07T07:38:40;11.90;;;5.78;;
54947;SDS011;41113;41.882;12.530;2023-09-07T07:41:06;10.90;;;5.45;;
54947;SDS011;41113;41.882;12.530;2023-09-07T07:43:32;13.73;;;5.85;;
54947;SDS011;41113;41.882;12.530;2023-09-07T07:45:57;11.02;;;5.53;;
54947;SDS011;41113;41.882;12.530;2023-09-07T07:48:24;9.77;;;5.35;;
54947;SDS011;41113;41.882;12.530;2023-09-07T07:50:49;14.27;;;5.72;;
54947;SDS011;41113;41.882;12.530;2023-09-07T07:53:14;10.80;;;5.35;;
54947;SDS011;41113;41.882;12.530;2023-09-07T07:55:40;14.60;;;5.20;;
54947;SDS011;41113;41.882;12.530;2023-09-07T07:58:06;10.30;;;5.03;;
54947;SDS011;41113;41.882;12.530;2023-09-07T08:00:37;9.55;;;4.97;;
54947;SDS011;41113;41.882;12.530;2023-09-07T08:03:05;9.40;;;4.30;;
54947;SDS011;41113;41.882;12.530;2023-09-07T08:05:32;12.10;;;5.70;;
54947;SDS011;41113;41.882;12.530;2023-09-07T08:07:58;9.27;;;5.07;;
54947;SDS011;41113;41.882;12.530;2023-09-07T08:10:23;10.95;;;4.95;;
54947;SDS011;41113;41.882;12.530;2023-09-07T08:12:52;10.70;;;5.40;;
54947;SDS011;41113;41.882;12.530;2023-09-07T08:15:19;15.63;;;5.38;;
54947;SDS011;41113;41.882;12.530;2023-09-07T08:17:46;14.20;;;5.57;;
54947;SDS011;41113;41.882;12.530;2023-09-07T08:20:12;16.42;;;5.63;;
54947;SDS011;41113;41.882;12.530;2023-09-07T08:22:38;20.67;;;6.32;;
54947;SDS011;41113;41.882;12.530;2023-09-07T08:25:06;14.35;;;5.50;;
54947;SDS011;41113;41.882;12.530;2023-09-07T08:27:32;13.95;;;5.32;;
54947;SDS011;41113;41.882;12.530;2023-09-07T08:29:57;15.73;;;5.95;;
54947;SDS011;41113;41.882;12.530;2023-09-07T08:32:24;18.80;;;6.13;;
54947;SDS011;41113;41.882;12.530;2023-09-07T08:34:49;13.02;;;5.65;;
54947;SDS011;41113;41.882;12.530;2023-09-07T08:37:16;16.38;;;5.80;;
54947;SDS011;41113;41.882;12.530;2023-09-07T08:39:41;13.55;;;5.75;;
54947;SDS011;41113;41.882;12.530;2023-09-07T08:42:07;16.90;;;5.60;;
54947;SDS011;41113;41.882;12.530;2023-09-07T08:44:33;12.00;;;6.25;;
54947;SDS011;41113;41.882;12.530;2023-09-07T08:47:00;11.93;;;4.95;;
54947;SDS011;41113;41.882;12.530;2023-09-07T08:49:28;10.65;;;5.47;;
54947;SDS011;41113;41.882;12.530;2023-09-07T08:51:58;12.65;;;5.32;;
54947;SDS011;41113;41.882;12.530;2023-09-07T08:54:25;12.15;;;5.82;;
54947;SDS011;41113;41.882;12.530;2023-09-07T08:56:51;11.98;;;5.63;;
54947;SDS011;41113;41.882;12.530;2023-09-07T08:59:16;10.15;;;5.55;;
54947;SDS011;41113;41.882;12.530;2023-09-07T09:01:42;11.13;;;5.65;;
54947;SDS011;41113;41.882;12.530;2023-09-07T09:04:07;13.07;;;5.75;;
54947;SDS011;41113;41.882;12.530;2023-09-07T09:06:32;12.48;;;5.72;;
54947;SDS011;41113;41.882;12.530;2023-09-07T09:08:59;15.77;;;6.75;;
54947;SDS011;41113;41.882;12.530;2023-09-07T09:11:25;9.50;;;5.15;;
54947;SDS011;41113;41.882;12.530;2023-09-07T09:13:51;15.30;;;5.75;;
54947;SDS011;41113;41.882;12.530;2023-09-07T09:16:18;15.80;;;6.07;;
54947;SDS011;41113;41.882;12.530;2023-09-07T09:19:03;13.43;;;6.05;;
54947;SDS011;41113;41.882;12.530;2023-09-07T09:21:28;13.35;;;5.97;;
54947;SDS011;41113;41.882;12.530;2023-09-07T09:23:54;12.15;;;6.03;;
54947;SDS011;41113;41.882;12.530;2023-09-07T09:26:21;11.43;;;5.60;;
54947;SDS011;41113;41.882;12.530;2023-09-07T09:28:48;10.80;;;5.57;;
54947;SDS011;41113;41.882;12.530;2023-09-07T09:31:15;12.65;;;6.25;;
54947;SDS011;41113;41.882;12.530;2023-09-07T09:33:42;13.23;;;6.63;;
54947;SDS011;41113;41.882;12.530;2023-09-07T09:36:12;13.30;;;6.82;;
54947;SDS011;41113;41.882;12.530;2023-09-07T09:38:37;10.13;;;6.13;;
54947;SDS011;41113;41.882;12.530;2023-09-07T09:41:03;11.32;;;6.07;;
54947;SDS011;41113;41.882;12.530;2023-09-07T09:43:33;11.35;;;5.88;;
54947;SDS011;41113;41.882;12.530;2023-09-07T09:45:59;16.77;;;5.95;;
54947;SDS011;41113;41.882;12.530;2023-09-07T09:48:25;13.02;;;5.80;;
54947;SDS011;41113;41.882;12.530;2023-09-07T09:50:52;11.65;;;6.05;;
54947;SDS011;41113;41.882;12.530;2023-09-07T09:53:18;10.70;;;5.95;;
54947;SDS011;41113;41.882;12.530;2023-09-07T09:55:48;10.70;;;6.15;;
54947;SDS011;41113;41.882;12.530;2023-09-07T09:58:15;13.55;;;6.07;;
54947;SDS011;41113;41.882;12.530;2023-09-07T10:00:45;11.98;;;6.00;;
54947;SDS011;41113;41.882;12.530;2023-09-07T10:03:22;10.50;;;5.78;;
54947;SDS011;41113;41.882;12.530;2023-09-07T10:05:52;10.43;;;5.32;;
54947;SDS011;41113;41.882;12.530;2023-09-07T10:08:19;11.68;;;5.57;;
54947;SDS011;41113;41.882;12.530;2023-09-07T10:10:48;11.05;;;6.18;;
54947;SDS011;41113;41.882;12.530;2023-09-07T10:13:14;10.77;;;6.28;;
54947;SDS011;41113;41.882;12.530;2023-09-07T10:15:41;10.75;;;5.57;;
54947;SDS011;41113;41.882;12.530;2023-09-07T10:18:11;11.32;;;6.07;;
54947;SDS011;41113;41.882;12.530;2023-09-07T10:23:15;11.98;;;5.45;;
54947;SDS011;41113;41.882;12.530;2023-09-07T10:25:40;12.43;;;5.78;;
54947;SDS011;41113;41.882;12.530;2023-09-07T10:28:06;10.80;;;5.18;;
54947;SDS011;41113;41.882;12.530;2023-09-07T10:30:42;10.15;;;5.38;;
54947;SDS011;41113;41.882;12.530;2023-09-07T10:33:18;9.48;;;5.35;;
54947;SDS011;41113;41.882;12.530;2023-09-07T10:35:44;10.30;;;5.28;;
54947;SDS011;41113;41.882;12.530;2023-09-07T10:38:12;9.27;;;4.90;;
54947;SDS011;41113;41.882;12.530;2023-09-07T10:40:39;10.15;;;5.18;;
54947;SDS011;41113;41.882;12.530;2023-09-07T10:43:05;9.57;;;4.90;;
54947;SDS011;41113;41.882;12.530;2023-09-07T10:45:30;10.45;;;5.22;;
54947;SDS011;41113;41.882;12.530;2023-09-07T10:47:55;10.18;;;5.10;;
54947;SDS011;41113;41.882;12.530;2023-09-07T10:50:21;10.43;;;5.43;;
54947;SDS011;41113;41.882;12.530;2023-09-07T10:52:46;10.38;;;4.95;;
54947;SDS011;41113;41.882;12.530;2023-09-07T10:55:12;12.50;;;5.80;;
54947;SDS011;41113;41.882;12.530;2023-09-07T10:57:47;9.85;;;5.60;;
54947;SDS011;41113;41.882;12.530;2023-09-07T11:00:13;10.02;;;5.75;;
54947;SDS011;41113;41.882;12.530;2023-09-07T11:02:40;9.40;;;5.25;;
54947;SDS011;41113;41.882;12.530;2023-09-07T11:05:06;10.13;;;5.40;;
54947;SDS011;41113;41.882;12.530;2023-09-07T11:07:33;11.30;;;5.45;;
54947;SDS011;41113;41.882;12.530;2023-09-07T11:09:59;11.23;;;5.68;;
54947;SDS011;41113;41.882;12.530;2023-09-07T11:12:24;10.82;;;5.38;;
54947;SDS011;41113;41.882;12.530;2023-09-07T11:14:50;9.90;;;5.05;;
54947;SDS011;41113;41.882;12.530;2023-09-07T11:17:25;12.35;;;5.47;;
54947;SDS011;41113;41.882;12.530;2023-09-07T11:19:52;9.55;;;5.20;;
54947;SDS011;41113;41.882;12.530;2023-09-07T11:22:17;9.30;;;5.00;;
54947;SDS011;41113;41.882;12.530;2023-09-07T11:24:44;9.18;;;4.60;;
54947;SDS011;41113;41.882;12.530;2023-09-07T11:27:10;10.43;;;4.72;;
54947;SDS011;41113;41.882;12.530;2023-09-07T11:29:36;10.70;;;5.40;;
54947;SDS011;41113;41.882;12.530;2023-09-07T11:32:08;8.82;;;4.68;;
54947;SDS011;41113;41.882;12.530;2023-09-07T11:34:34;10.15;;;4.55;;
54947;SDS011;41113;41.882;12.530;2023-09-07T11:37:01;9.98;;;4.90;;
54947;SDS011;41113;41.882;12.530;2023-09-07T11:39:28;8.87;;;4.40;;
54947;SDS011;41113;41.882;12.530;2023-09-07T11:41:53;11.77;;;5.25;;
54947;SDS011;41113;41.882;12.530;2023-09-07T11:44:19;9.10;;;5.05;;
54947;SDS011;41113;41.882;12.530;2023-09-07T11:46:45;9.25;;;4.80;;
54947;SDS011;41113;41.882;12.530;2023-09-07T11:49:10;9.20;;;4.60;;
54947;SDS011;41113;41.882;12.530;2023-09-07T11:51:36;8.90;;;4.70;;
54947;SDS011;41113;41.882;12.530;2023-09-07T11:54:02;9.05;;;4.88;;
54947;SDS011;41113;41.882;12.530;2023-09-07T11:56:28;9.82;;;4.82;;
54947;SDS011;41113;41.882;12.530;2023-09-07T11:58:54;10.90;;;5.10;;
54947;SDS011;41113;41.882;12.530;2023-09-07T12:01:20;10.05;;;4.90;;
54947;SDS011;41113;41.882;12.530;2023-09-07T12:03:45;8.85;;;4.63;;
54947;SDS011;41113;41.882;12.530;2023-09-07T12:06:12;8.75;;;3.95;;
54947;SDS011;41113;41.882;12.530;2023-09-07T12:08:38;9.02;;;4.20;;
54947;SDS011;41113;41.882;12.530;2023-09-07T12:11:07;8.70;;;3.95;;
54947;SDS011;41113;41.882;12.530;2023-09-07T12:13:32;10.10;;;4.80;;
54947;SDS011;41113;41.882;12.530;2023-09-07T12:15:57;11.38;;;4.65;;
54947;SDS011;41113;41.882;12.530;2023-09-07T12:18:23;9.32;;;4.57;;
54947;SDS011;41113;41.882;12.530;2023-09-07T12:20:49;8.75;;;4.18;;
54947;SDS011;41113;41.882;12.530;2023-09-07T12:23:14;9.25;;;4.72;;
54947;SDS011;41113;41.882;12.530;2023-09-07T12:25:39;9.45;;;5.03;;
54947;SDS011;41113;41.882;12.530;2023-09-07T12:28:05;9.30;;;4.85;;
54947;SDS011;41113;41.882;12.530;2023-09-07T12:30:30;11.43;;;5.20;;
54947;SDS011;41113;41.882;12.530;2023-09-07T12:32:55;10.43;;;4.82;;
54947;SDS011;41113;41.882;12.530;2023-09-07T12:35:21;10.38;;;4.70;;
54947;SDS011;41113;41.882;12.530;2023-09-07T12:37:46;9.30;;;4.90;;
54947;SDS011;41113;41.882;12.530;2023-09-07T12:40:12;8.55;;;4.80;;
54947;SDS011;41113;41.882;12.530;2023-09-07T12:42:44;9.68;;;5.13;;
54947;SDS011;41113;41.882;12.530;2023-09-07T12:45:10;10.30;;;4.07;;
54947;SDS011;41113;41.882;12.530;2023-09-07T12:47:37;8.40;;;3.85;;
54947;SDS011;41113;41.882;12.530;2023-09-07T12:50:03;8.25;;;4.18;;
54947;SDS011;41113;41.882;12.530;2023-09-07T12:52:30;9.02;;;4.22;;
54947;SDS011;41113;41.882;12.530;2023-09-07T12:54:55;8.10;;;3.72;;
54947;SDS011;41113;41.882;12.530;2023-09-07T12:57:21;10.73;;;4.50;;
54947;SDS011;41113;41.882;12.530;2023-09-07T12:59:46;8.45;;;3.95;;
54947;SDS011;41113;41.882;12.530;2023-09-07T13:02:11;9.05;;;3.92;;
54947;SDS011;41113;41.882;12.530;2023-09-07T13:04:37;9.68;;;4.13;;
54947;SDS011;41113;41.882;12.530;2023-09-07T13:07:02;9.40;;;4.28;;
54947;SDS011;41113;41.882;12.530;2023-09-07T13:09:28;10.07;;;4.38;;
54947;SDS011;41113;41.882;12.530;2023-09-07T13:11:53;9.77;;;4.50;;
54947;SDS011;41113;41.882;12.530;2023-09-07T13:14:18;8.82;;;4.38;;
54947;SDS011;41113;41.882;12.530;2023-09-07T13:16:43;7.90;;;3.60;;
54947;SDS011;41113;41.882;12.530;2023-09-07T13:19:09;8.57;;;4.53;;
54947;SDS011;41113;41.882;12.530;2023-09-07T13:21:36;11.10;;;4.47;;
54947;SDS011;41113;41.882;12.530;2023-09-07T13:24:01;9.45;;;4.70;;
54947;SDS011;41113;41.882;12.530;2023-09-07T13:26:26;9.00;;;4.65;;
54947;SDS011;41113;41.882;12.530;2023-09-07T13:28:52;10.43;;;4.80;;
54947;SDS011;41113;41.882;12.530;2023-09-07T13:31:17;8.73;;;4.60;;
54947;SDS011;41113;41.882;12.530;2023-09-07T13:33:42;8.43;;;4.32;;
54947;SDS011;41113;41.882;12.530;2023-09-07T13:36:08;9.77;;;4.57;;
54947;SDS011;41113;41.882;12.530;2023-09-07T13:38:35;9.55;;;4.32;;
54947;SDS011;41113;41.882;12.530;2023-09-07T13:41:00;9.05;;;4.10;;
54947;SDS011;41113;41.882;12.530;2023-09-07T13:43:25;9.93;;;4.30;;
54947;SDS011;41113;41.882;12.530;2023-09-07T13:45:51;8.98;;;3.80;;
54947;SDS011;41113;41.882;12.530;2023-09-07T13:48:16;9.27;;;4.15;;
54947;SDS011;41113;41.882;12.530;2023-09-07T13:50:42;9.63;;;4.47;;
54947;SDS011;41113;41.882;12.530;2023-09-07T13:53:08;9.40;;;3.92;;
54947;SDS011;41113;41.882;12.530;2023-09-07T13:55:33;8.75;;;4.00;;
54947;SDS011;41113;41.882;12.530;2023-09-07T13:57:59;9.07;;;4.22;;
54947;SDS011;41113;41.882;12.530;2023-09-07T14:00:24;8.07;;;4.20;;
54947;SDS011;41113;41.882;12.530;2023-09-07T14:02:51;9.43;;;4.05;;
54947;SDS011;41113;41.882;12.530;2023-09-07T14:05:17;8.85;;;4.28;;
54947;SDS011;41113;41.882;12.530;2023-09-07T14:07:42;8.60;;;4.25;;
54947;SDS011;41113;41.882;12.530;2023-09-07T14:10:08;9.43;;;4.57;;
54947;SDS011;41113;41.882;12.530;2023-09-07T14:12:33;9.40;;;4.18;;
54947;SDS011;41113;41.882;12.530;2023-09-07T14:14:59;8.85;;;4.30;;
54947;SDS011;41113;41.882;12.530;2023-09-07T14:17:24;8.80;;;4.28;;
54947;SDS011;41113;41.882;12.530;2023-09-07T14:19:49;8.68;;;3.58;;